Time;durP1;ratioP1;P1;durP2;ratioP2;P2;SDS_P1;SDS_P2;PMS_P1;PMS_P2;Temp;Humidity;BMP_temperature;BMP_pressure;BME280_temperature;BME280_humidity;BME280_pressure;Samples;Min_cycle;Max_cycle;Signal;HPM_P1;HPM_P2
2024/04/10 00:00:27;;;;;;;6.78;1.38;;;9.50;99.90;;;;;;5365755;21;20044;-72
2024/04/10 00:02:54;;;;;;;6.32;1.27;;;9.50;99.90;;;;;;5343583;26;20045;-72
2024/04/10 00:05:21;;;;;;;6.82;1.25;;;9.50;99.90;;;;;;5343375;26;20020;-72
2024/04/10 00:07:50;;;;;;;4.80;1.50;;;9.50;99.90;;;;;;5344409;26;20045;-71
2024/04/10 00:10:17;;;;;;;8.85;1.40;;;9.50;99.90;;;;;;5343435;26;20481;-72
2024/04/10 00:12:44;;;;;;;13.50;1.80;;;9.50;99.90;;;;;;5343944;26;20020;-72
2024/04/10 00:15:12;;;;;;;9.13;1.05;;;9.50;99.90;;;;;;5343234;26;20017;-72
2024/04/10 00:17:39;;;;;;;11.05;1.40;;;9.50;99.90;;;;;;5343950;26;20476;-72
2024/04/10 00:20:07;;;;;;;8.77;1.27;;;9.50;99.90;;;;;;5343112;26;20029;-72
2024/04/10 00:22:35;;;;;;;10.27;1.77;;;9.50;99.90;;;;;;5343791;26;20025;-72
2024/04/10 00:25:03;;;;;;;7.93;1.38;;;9.50;99.90;;;;;;5342918;26;20028;-72
2024/04/10 00:27:30;;;;;;;5.45;1.25;;;9.50;99.90;;;;;;5343770;26;20395;-72
2024/04/10 00:29:57;;;;;;;2.95;1.00;;;9.50;99.90;;;;;;5343339;26;20438;-72
2024/04/10 00:32:25;;;;;;;6.03;0.80;;;9.50;99.90;;;;;;5313694;26;20021;-72
2024/04/10 00:34:52;;;;;;;7.85;1.55;;;9.50;99.90;;;;;;5342714;26;20025;-72
2024/04/10 00:37:19;;;;;;;5.95;0.82;;;9.50;99.90;;;;;;5343160;26;20037;-72
2024/04/10 00:39:46;;;;;;;5.25;1.05;;;9.50;99.90;;;;;;5343319;26;20021;-72
2024/04/10 00:42:13;;;;;;;11.65;1.30;;;9.50;99.90;;;;;;5343355;26;20025;-72
2024/04/10 00:44:51;;;;;;;5.93;1.23;;;9.50;99.90;;;;;;5312729;26;20029;-72
2024/04/10 00:47:18;;;;;;;5.05;1.10;;;9.50;99.90;;;;;;5343243;26;20033;-72
2024/04/10 00:49:46;;;;;;;6.82;1.00;;;9.50;99.90;;;;;;5342855;26;20480;-71
2024/04/10 00:52:14;;;;;;;4.40;1.20;;;9.50;99.90;;;;;;5343461;26;20025;-71
2024/04/10 00:54:42;;;;;;;5.88;1.63;;;9.50;99.90;;;;;;5342726;26;20025;-72
2024/04/10 00:57:09;;;;;;;6.97;1.42;;;9.50;99.90;;;;;;5343003;26;20025;-72
2024/04/10 00:59:37;;;;;;;8.38;1.88;;;9.60;99.90;;;;;;5342590;26;20021;-71
2024/04/10 01:02:05;;;;;;;8.85;1.10;;;9.50;99.90;;;;;;5343018;26;20481;-72
2024/04/10 01:04:33;;;;;;;8.65;1.45;;;9.60;99.90;;;;;;5342402;26;20025;-72
2024/04/10 01:07:05;;;;;;;6.97;0.90;;;9.60;99.90;;;;;;5342620;26;20021;-72
2024/04/10 01:09:32;;;;;;;6.25;1.40;;;9.60;99.90;;;;;;5342527;26;20029;-72
2024/04/10 01:11:59;;;;;;;6.90;0.90;;;9.60;99.90;;;;;;5343097;26;20021;-72
2024/04/10 01:14:26;;;;;;;4.72;1.15;;;9.50;99.90;;;;;;5342655;26;20029;-72
2024/04/10 01:16:53;;;;;;;4.80;1.50;;;9.50;99.90;;;;;;5346337;26;20025;-72
2024/04/10 01:19:20;;;;;;;4.10;0.85;;;9.50;99.90;;;;;;5346193;26;20033;-72
2024/04/10 01:21:46;;;;;;;8.43;1.05;;;9.50;99.90;;;;;;5346140;26;20025;-72
2024/04/10 01:24:13;;;;;;;7.70;1.20;;;9.50;99.90;;;;;;5345866;26;20492;-72
2024/04/10 01:26:40;;;;;;;5.95;1.65;;;9.40;99.90;;;;;;5346082;26;20021;-72
2024/04/10 01:29:07;;;;;;;4.97;1.38;;;9.40;99.90;;;;;;5346396;26;20025;-73
2024/04/10 01:31:34;;;;;;;7.55;1.85;;;9.40;99.90;;;;;;5345977;26;20024;-72
2024/04/10 01:34:01;;;;;;;12.10;1.33;;;9.30;99.90;;;;;;5345552;26;20025;-72
2024/04/10 01:36:28;;;;;;;8.90;2.53;;;9.30;99.90;;;;;;5346384;26;20372;-73
2024/04/10 01:38:54;;;;;;;7.45;1.48;;;9.30;99.90;;;;;;5346237;26;20377;-73
2024/04/10 01:41:21;;;;;;;4.65;1.00;;;9.30;99.90;;;;;;5345881;26;20030;-72
2024/04/10 01:43:48;;;;;;;4.20;1.10;;;9.30;99.90;;;;;;5345392;26;20025;-72
2024/04/10 01:46:15;;;;;;;5.60;1.08;;;9.30;99.90;;;;;;5346193;26;20024;-72
2024/04/10 01:48:42;;;;;;;5.88;0.95;;;9.30;99.90;;;;;;5315475;26;20021;-72
2024/04/10 01:51:09;;;;;;;4.50;1.45;;;9.20;99.90;;;;;;5345420;26;20030;-73
2024/04/10 01:53:36;;;;;;;4.57;2.10;;;9.20;99.90;;;;;;5345382;26;20021;-72
2024/04/10 01:56:03;;;;;;;5.97;1.13;;;9.20;99.90;;;;;;5346000;26;20033;-72
2024/04/10 01:58:31;;;;;;;2.92;1.38;;;9.20;99.90;;;;;;5345578;26;20025;-72
2024/04/10 02:00:58;;;;;;;3.28;0.82;;;9.20;99.90;;;;;;5345635;26;20481;-73
2024/04/10 02:03:25;;;;;;;4.95;0.88;;;9.20;99.90;;;;;;5345142;26;20020;-72
2024/04/10 02:05:53;;;;;;;1.52;0.68;;;9.20;99.90;;;;;;5345995;26;20021;-72
2024/04/10 02:08:20;;;;;;;11.23;1.20;;;9.30;99.90;;;;;;5346008;26;20017;-72
2024/04/10 02:10:46;;;;;;;2.80;0.70;;;9.30;99.90;;;;;;5345485;26;20029;-73
2024/04/10 02:13:13;;;;;;;4.80;0.68;;;9.30;99.90;;;;;;5345097;26;20024;-73
2024/04/10 02:15:40;;;;;;;4.20;0.82;;;9.30;99.90;;;;;;5345539;26;20033;-72
2024/04/10 02:18:07;;;;;;;3.00;1.23;;;9.30;99.90;;;;;;5345627;26;20388;-72
2024/04/10 02:20:34;;;;;;;3.10;0.60;;;9.40;99.90;;;;;;5345291;26;20021;-73
2024/04/10 02:23:01;;;;;;;1.42;0.40;;;9.40;99.90;;;;;;5345164;26;20030;-73
2024/04/10 02:25:32;;;;;;;2.67;0.30;;;9.40;99.90;;;;;;5345661;26;20026;-72
2024/04/10 02:27:59;;;;;;;1.90;0.40;;;9.30;99.90;;;;;;5344678;26;20029;-72
2024/04/10 02:30:26;;;;;;;3.92;0.40;;;9.40;99.90;;;;;;5345191;26;20033;-72
2024/04/10 02:32:53;;;;;;;1.48;0.20;;;9.30;99.90;;;;;;5345721;26;20029;-72
2024/04/10 02:35:20;;;;;;;1.55;0.32;;;9.30;99.90;;;;;;5344732;26;20026;-72
2024/04/10 02:37:47;;;;;;;1.17;0.30;;;9.30;99.90;;;;;;5345382;26;20033;-72
2024/04/10 02:40:14;;;;;;;3.92;0.60;;;9.30;99.90;;;;;;5345105;26;20379;-72
2024/04/10 02:42:51;;;;;;;1.23;0.35;;;9.30;99.90;;;;;;5345519;26;20032;-72
2024/04/10 02:45:18;;;;;;;2.13;0.20;;;9.20;99.90;;;;;;5344870;26;20379;-73
2024/04/10 02:47:45;;;;;;;4.68;0.40;;;9.10;99.90;;;;;;5345176;26;20032;-72
2024/04/10 02:50:12;;;;;;;0.28;0.22;;;9.10;99.90;;;;;;5345132;26;20021;-72
2024/04/10 02:52:39;;;;;;;1.67;0.32;;;9.00;99.90;;;;;;5315084;26;20362;-72
2024/04/10 02:55:06;;;;;;;3.38;0.50;;;9.00;99.90;;;;;;5344403;26;20021;-72
2024/04/10 02:57:32;;;;;;;3.88;0.95;;;9.00;99.90;;;;;;5345404;26;20029;-72
2024/04/10 02:59:59;;;;;;;4.93;0.70;;;9.00;99.90;;;;;;5344920;26;20491;-73
2024/04/10 03:02:26;;;;;;;0.63;0.30;;;9.00;99.90;;;;;;5345308;26;20024;-72
2024/04/10 03:04:53;;;;;;;2.42;0.63;;;9.00;99.90;;;;;;5344248;26;20033;-72
2024/04/10 03:07:20;;;;;;;2.45;0.60;;;9.00;99.90;;;;;;5344929;26;20029;-72
2024/04/10 03:09:47;;;;;;;2.03;0.40;;;9.00;99.90;;;;;;5344586;26;20029;-72
2024/04/10 03:12:14;;;;;;;2.10;0.55;;;8.90;99.90;;;;;;5344881;26;20158;-73
2024/04/10 03:14:42;;;;;;;5.70;1.80;;;9.00;99.90;;;;;;5344625;26;20377;-72
2024/04/10 03:17:13;;;;;;;0.95;0.50;;;9.00;99.90;;;;;;5345025;26;20493;-73
2024/04/10 03:19:39;;;;;;;4.25;0.68;;;8.90;99.90;;;;;;5344323;26;20032;-72
2024/04/10 03:22:07;;;;;;;4.57;0.80;;;9.00;99.90;;;;;;5344992;26;20523;-72
2024/04/10 03:24:34;;;;;;;5.03;0.90;;;9.00;99.90;;;;;;5344292;26;20033;-72
2024/04/10 03:27:01;;;;;;;3.10;0.70;;;9.00;99.90;;;;;;5344928;26;20382;-72
2024/04/10 03:29:28;;;;;;;3.47;0.90;;;9.00;99.90;;;;;;5343151;26;20020;-72
2024/04/10 03:31:55;;;;;;;7.85;1.55;;;9.00;99.90;;;;;;5344145;26;20376;-72
2024/04/10 03:34:22;;;;;;;4.47;0.75;;;9.00;99.90;;;;;;5344159;26;20381;-72
2024/04/10 03:36:49;;;;;;;5.97;1.10;;;8.90;99.90;;;;;;5344730;26;20378;-73
2024/04/10 03:39:16;;;;;;;5.28;1.08;;;9.00;99.90;;;;;;5312656;26;20032;-73
2024/04/10 03:41:42;;;;;;;7.72;1.45;;;9.00;99.90;;;;;;5343427;26;20025;-72
2024/04/10 03:44:09;;;;;;;2.97;0.70;;;9.00;99.90;;;;;;5344224;26;20025;-73
2024/04/10 03:46:36;;;;;;;5.78;1.23;;;9.00;99.90;;;;;;5344777;26;20481;-72
2024/04/10 03:49:03;;;;;;;9.48;1.30;;;9.00;99.90;;;;;;5344581;26;20024;-72
2024/04/10 03:51:30;;;;;;;5.88;1.20;;;9.00;99.90;;;;;;5344186;26;20025;-72
2024/04/10 03:53:57;;;;;;;3.35;1.00;;;9.00;99.90;;;;;;5343731;26;20021;-72
2024/04/10 03:56:23;;;;;;;6.25;1.20;;;9.00;99.90;;;;;;5344135;26;20021;-73
2024/04/10 04:00:22;;;;;;;3.90;1.20;;;9.00;99.90;;;;;;5581116;25;20341;-71
2024/04/10 04:02:49;;;;;;;6.75;1.63;;;9.00;99.90;;;;;;5543538;25;20372;-72
2024/04/10 04:05:16;;;;;;;7.40;1.65;;;9.00;99.90;;;;;;5543036;25;20018;-72
2024/04/10 04:07:43;;;;;;;7.38;2.60;;;9.00;99.90;;;;;;5542593;25;20017;-72
2024/04/10 04:10:10;;;;;;;7.38;1.70;;;9.00;99.90;;;;;;5542893;25;20033;-71
2024/04/10 04:12:37;;;;;;;6.80;1.67;;;9.10;99.90;;;;;;5541629;25;20019;-72
2024/04/10 04:15:07;;;;;;;8.63;1.67;;;9.00;99.90;;;;;;5542456;25;20017;-72
2024/04/10 04:17:34;;;;;;;9.23;1.35;;;9.00;99.90;;;;;;5543129;25;20021;-71
2024/04/10 04:20:02;;;;;;;6.05;1.50;;;9.00;99.90;;;;;;5542443;25;20013;-72
2024/04/10 04:22:29;;;;;;;9.50;1.75;;;9.10;99.90;;;;;;5543118;25;20030;-73
2024/04/10 04:24:56;;;;;;;10.60;1.90;;;9.00;99.90;;;;;;5542333;25;20021;-72
2024/04/10 04:27:25;;;;;;;5.75;1.70;;;9.00;99.90;;;;;;5543343;25;20021;-72
2024/04/10 04:29:52;;;;;;;4.28;1.35;;;9.00;99.90;;;;;;5542768;25;20013;-72
2024/04/10 04:32:19;;;;;;;9.98;1.42;;;8.90;99.90;;;;;;5542925;25;20017;-71
2024/04/10 04:34:45;;;;;;;7.90;1.48;;;8.90;99.90;;;;;;5542275;25;20021;-71
2024/04/10 04:37:12;;;;;;;6.00;1.48;;;8.90;99.90;;;;;;5540763;25;20026;-72
2024/04/10 04:39:39;;;;;;;9.82;2.13;;;8.90;99.90;;;;;;5542100;25;20485;-72
2024/04/10 04:42:06;;;;;;;7.60;1.63;;;8.90;99.90;;;;;;5542806;25;20017;-71
2024/04/10 04:44:33;;;;;;;10.88;1.50;;;9.00;99.90;;;;;;5541980;25;20017;-72
2024/04/10 04:47:00;;;;;;;9.45;1.75;;;8.90;99.90;;;;;;5542502;25;20025;-72
2024/04/10 04:49:26;;;;;;;4.00;1.60;;;9.00;99.90;;;;;;5541857;25;20017;-71
2024/04/10 04:51:53;;;;;;;9.32;1.83;;;8.90;99.90;;;;;;5542115;25;20029;-71
2024/04/10 04:54:20;;;;;;;8.60;1.80;;;9.00;99.90;;;;;;5542090;25;20021;-71
2024/04/10 04:56:47;;;;;;;8.90;2.00;;;9.00;99.90;;;;;;5542325;25;20018;-71
2024/04/10 04:59:16;;;;;;;8.77;2.03;;;9.00;99.90;;;;;;5541932;25;20029;-72
2024/04/10 05:01:42;;;;;;;9.98;1.98;;;9.00;99.90;;;;;;5541618;25;20029;-72
2024/04/10 05:06:56;;;;;;;12.00;3.35;;;9.00;99.90;;;;;;5542139;25;20022;-72
2024/04/10 05:09:23;;;;;;;5.97;1.83;;;8.90;99.90;;;;;;5540852;25;20021;-72
2024/04/10 05:11:49;;;;;;;8.80;1.90;;;9.00;99.90;;;;;;5525144;25;20021;-72
2024/04/10 05:14:16;;;;;;;9.93;1.98;;;9.00;99.90;;;;;;5525425;25;20017;-72
2024/04/10 05:16:43;;;;;;;10.35;1.80;;;9.00;99.90;;;;;;5525776;25;20033;-71
2024/04/10 05:19:10;;;;;;;7.40;2.70;;;9.00;99.90;;;;;;5525768;25;20021;-72
2024/04/10 05:21:37;;;;;;;10.10;2.30;;;9.00;99.90;;;;;;5525681;25;20057;-72
2024/04/10 05:24:04;;;;;;;8.48;1.88;;;9.00;99.90;;;;;;5525112;25;20021;-72
2024/04/10 05:26:31;;;;;;;10.63;2.50;;;9.00;99.90;;;;;;5526187;25;20026;-72
2024/04/10 05:28:58;;;;;;;7.45;1.83;;;9.10;99.90;;;;;;5525824;25;20377;-72
2024/04/10 05:31:25;;;;;;;6.65;2.08;;;9.00;99.90;;;;;;5526182;25;20021;-72
2024/04/10 05:33:52;;;;;;;13.45;2.20;;;9.10;99.90;;;;;;5525520;25;20037;-73
2024/04/10 05:36:19;;;;;;;7.78;2.00;;;9.10;99.90;;;;;;5515920;26;20029;-73
2024/04/10 05:38:46;;;;;;;14.30;2.90;;;9.10;99.90;;;;;;5512457;26;20033;-73
2024/04/10 05:41:13;;;;;;;10.05;2.10;;;9.10;99.90;;;;;;5523725;26;20029;-73
2024/04/10 05:43:40;;;;;;;8.63;2.13;;;9.10;99.90;;;;;;5524741;25;20017;-73
2024/04/10 05:46:07;;;;;;;8.18;1.95;;;9.10;99.90;;;;;;5524478;26;20025;-72
2024/04/10 05:48:34;;;;;;;5.47;1.50;;;9.20;99.90;;;;;;5525937;25;20029;-72
2024/04/10 05:51:01;;;;;;;8.43;1.85;;;9.40;99.90;;;;;;5525305;25;20030;-72
2024/04/10 05:53:30;;;;;;;13.48;2.65;;;9.50;99.90;;;;;;5523365;26;20021;-72
2024/04/10 05:56:01;;;;;;;11.30;2.90;;;9.50;99.90;;;;;;5518260;25;20026;-73
2024/04/10 05:58:28;;;;;;;11.60;1.90;;;9.60;99.90;;;;;;5517059;26;20709;-74
2024/04/10 06:00:55;;;;;;;9.13;2.17;;;9.70;99.90;;;;;;5545452;20;20481;-71
2024/04/10 06:03:21;;;;;;;10.80;3.25;;;9.80;99.90;;;;;;5522713;25;20037;-70
2024/04/10 06:05:49;;;;;;;9.55;1.65;;;10.10;99.90;;;;;;5525264;25;20033;-70
2024/04/10 06:08:16;;;;;;;11.43;2.03;;;10.40;99.90;;;;;;5523472;26;20017;-69
2024/04/10 06:10:51;;;;;;;13.50;2.70;;;10.60;99.90;;;;;;5523201;26;20021;-70
2024/04/10 06:13:17;;;;;;;12.32;2.45;;;10.40;99.90;;;;;;5524884;25;20013;-70
2024/04/10 06:15:44;;;;;;;10.30;2.58;;;10.30;99.90;;;;;;5525322;26;20017;-70
2024/04/10 06:18:11;;;;;;;10.95;2.38;;;10.00;99.90;;;;;;5525546;25;20017;-70
2024/04/10 06:20:39;;;;;;;8.93;2.47;;;9.90;99.90;;;;;;5524945;25;20481;-69
2024/04/10 06:23:06;;;;;;;12.50;3.42;;;9.90;99.90;;;;;;5524670;25;20030;-70
2024/04/10 06:25:33;;;;;;;13.60;2.45;;;10.30;99.90;;;;;;5523395;26;20017;-69
2024/04/10 06:28:00;;;;;;;11.30;2.72;;;10.60;99.90;;;;;;5525095;25;20024;-70
2024/04/10 06:30:28;;;;;;;6.53;2.47;;;10.70;99.90;;;;;;5524810;25;20014;-70
2024/04/10 06:32:54;;;;;;;13.98;2.63;;;11.20;99.90;;;;;;5525126;25;20032;-70
2024/04/10 06:35:21;;;;;;;13.00;2.97;;;11.30;99.90;;;;;;5525015;25;20017;-70
2024/04/10 06:37:48;;;;;;;11.55;3.50;;;11.60;99.90;;;;;;5506092;25;20021;-70
2024/04/10 06:40:15;;;;;;;10.27;2.53;;;11.70;99.90;;;;;;5507539;26;20038;-70
2024/04/10 06:42:42;;;;;;;13.20;2.90;;;11.70;99.90;;;;;;5508151;25;20373;-70
2024/04/10 06:45:09;;;;;;;11.80;2.63;;;11.70;99.90;;;;;;5518267;26;20029;-70
2024/04/10 06:47:35;;;;;;;18.40;3.95;;;11.70;99.90;;;;;;5506520;26;20378;-70
2024/04/10 06:50:02;;;;;;;12.73;3.55;;;11.50;99.90;;;;;;5513776;25;20023;-70
2024/04/10 06:52:30;;;;;;;13.43;3.20;;;11.50;99.90;;;;;;5524738;25;20026;-70
2024/04/10 06:54:57;;;;;;;22.65;5.13;;;11.80;99.90;;;;;;5511057;26;20519;-70
2024/04/10 06:57:23;;;;;;;21.48;3.97;;;11.80;99.90;;;;;;5507418;25;20033;-70
2024/04/10 06:59:50;;;;;;;17.45;4.82;;;11.60;99.90;;;;;;5504810;26;20490;-70
2024/04/10 07:02:17;;;;;;;11.68;3.63;;;11.80;99.90;;;;;;5504476;25;20045;-70
2024/04/10 07:04:47;;;;;;;12.70;3.80;;;12.10;99.90;;;;;;5506644;25;20377;-70
2024/04/10 07:07:15;;;;;;;16.60;4.82;;;12.30;99.90;;;;;;5505885;26;20026;-70
2024/04/10 07:09:41;;;;;;;16.83;4.00;;;12.60;99.90;;;;;;5502923;25;20022;-70
2024/04/10 07:12:08;;;;;;;11.07;3.13;;;12.70;99.90;;;;;;5487797;26;20377;-72
2024/04/10 07:14:36;;;;;;;15.18;3.28;;;13.00;99.90;;;;;;5487169;26;20022;-70
2024/04/10 07:17:06;;;;;;;13.73;3.65;;;13.20;99.90;;;;;;5510672;26;20540;-70
2024/04/10 07:19:36;;;;;;;14.32;3.83;;;13.30;99.90;;;;;;5523584;25;20021;-70
2024/04/10 07:22:07;;;;;;;13.50;3.63;;;13.40;99.90;;;;;;5522102;26;20374;-70
2024/04/10 07:24:34;;;;;;;13.40;3.70;;;13.50;99.90;;;;;;5523511;25;20026;-70
2024/04/10 07:27:01;;;;;;;12.27;4.40;;;13.60;99.90;;;;;;5524413;25;20022;-70
2024/04/10 07:29:28;;;;;;;13.82;3.97;;;13.70;99.90;;;;;;5522044;26;20030;-70
2024/04/10 07:31:55;;;;;;;12.68;4.07;;;13.50;99.90;;;;;;5523030;25;20489;-70
2024/04/10 07:34:22;;;;;;;18.77;4.82;;;13.20;99.90;;;;;;5510962;25;20033;-70
2024/04/10 07:36:49;;;;;;;19.20;4.80;;;12.80;99.90;;;;;;5517828;25;20382;-71
2024/04/10 07:39:16;;;;;;;13.68;4.40;;;12.60;99.90;;;;;;5507748;26;20026;-70
2024/04/10 07:41:43;;;;;;;14.57;3.55;;;12.90;99.90;;;;;;5497749;26;20026;-71
2024/04/10 07:44:10;;;;;;;16.73;5.05;;;13.00;99.90;;;;;;5515071;26;20037;-70
2024/04/10 07:46:37;;;;;;;17.63;3.85;;;13.20;99.90;;;;;;5523898;25;20021;-71
2024/04/10 07:49:06;;;;;;;15.95;3.78;;;13.70;99.90;;;;;;5522528;25;20443;-70
2024/04/10 07:51:33;;;;;;;13.73;4.18;;;13.90;99.90;;;;;;5521005;25;20026;-70
2024/04/10 07:54:00;;;;;;;12.73;3.92;;;13.80;99.90;;;;;;5519663;25;20494;-70
2024/04/10 07:56:28;;;;;;;10.75;3.22;;;14.20;99.90;;;;;;5519082;25;20029;-70
2024/04/10 07:58:54;;;;;;;25.00;4.55;;;14.30;99.90;;;;;;5484631;26;20026;-70
2024/04/10 08:01:22;;;;;;;12.18;3.03;;;14.00;99.90;;;;;;5486528;26;20478;-70
2024/04/10 08:03:50;;;;;;;11.40;3.28;;;13.70;99.90;;;;;;5485891;26;20018;-70
2024/04/10 08:06:17;;;;;;;12.52;3.17;;;13.90;99.90;;;;;;5486613;26;20369;-70
2024/04/10 08:08:45;;;;;;;10.20;3.03;;;14.10;99.90;;;;;;5497421;26;20034;-70
2024/04/10 08:11:15;;;;;;;11.63;2.92;;;14.30;99.90;;;;;;5523278;25;20465;-70
2024/04/10 08:13:42;;;;;;;12.15;3.83;;;14.50;99.90;;;;;;5519990;25;20037;-70
2024/04/10 08:16:12;;;;;;;12.50;3.58;;;14.30;99.90;;;;;;5503074;26;20026;-70
2024/04/10 08:18:40;;;;;;;10.10;2.42;;;14.10;99.90;;;;;;5502985;25;20516;-70
2024/04/10 08:21:10;;;;;;;9.43;2.78;;;13.80;99.90;;;;;;5501961;26;20038;-70
2024/04/10 08:23:39;;;;;;;8.95;2.97;;;14.30;99.90;;;;;;5500630;26;20034;-70
2024/04/10 08:26:12;;;;;;;11.95;3.08;;;14.70;99.90;;;;;;5505882;25;20025;-70
2024/04/10 08:28:48;;;;;;;6.50;2.50;;;14.50;99.90;;;;;;5509404;26;20497;-70
2024/04/10 08:31:21;;;;;;;6.07;2.60;;;14.10;99.90;;;;;;5502049;25;20029;-70
2024/04/10 08:33:51;;;;;;;8.35;2.40;;;14.40;99.90;;;;;;5499497;26;20026;-71
2024/04/10 08:36:20;;;;;;;9.80;2.38;;;14.50;99.90;;;;;;5503213;25;20038;-70
2024/04/10 08:38:47;;;;;;;8.55;3.33;;;14.70;99.90;;;;;;5511593;26;20033;-70
2024/04/10 08:41:18;;;;;;;10.02;2.90;;;14.60;99.90;;;;;;5522385;25;20030;-70
2024/04/10 08:43:50;;;;;;;6.85;2.95;;;14.70;99.90;;;;;;5514743;25;20373;-70
2024/04/10 08:46:21;;;;;;;8.52;3.22;;;14.60;99.90;;;;;;5523203;26;20378;-71
2024/04/10 08:48:51;;;;;;;11.30;3.33;;;14.50;99.90;;;;;;5524636;26;20034;-70
2024/04/10 08:51:19;;;;;;;13.10;4.22;;;14.10;99.90;;;;;;5524083;26;20482;-70
2024/04/10 08:53:46;;;;;;;11.85;3.85;;;13.60;99.90;;;;;;5514571;25;20034;-70
2024/04/10 08:56:15;;;;;;;10.70;3.05;;;13.50;99.90;;;;;;5521474;25;20041;-70
2024/04/10 08:58:45;;;;;;;11.23;3.38;;;13.40;99.90;;;;;;5525655;25;20370;-70
2024/04/10 09:01:33;;;;;;;8.45;3.33;;;13.10;99.90;;;;;;5524189;25;20033;-70
2024/04/10 09:04:13;;;;;;;7.40;3.60;;;12.90;99.90;;;;;;5523626;26;20021;-70
2024/04/10 09:06:40;;;;;;;10.13;2.78;;;12.80;99.90;;;;;;5525801;25;20381;-70
2024/04/10 09:09:08;;;;;;;11.70;2.55;;;12.70;99.90;;;;;;5525972;25;20022;-70
2024/04/10 09:11:37;;;;;;;8.82;2.70;;;12.60;99.90;;;;;;5525441;25;20034;-70
2024/04/10 09:14:15;;;;;;;11.57;3.30;;;12.50;99.90;;;;;;5525240;25;20017;-70
2024/04/10 09:16:41;;;;;;;9.25;2.80;;;12.80;99.90;;;;;;5525761;25;20486;-70
2024/04/10 09:19:14;;;;;;;9.50;2.92;;;12.70;99.90;;;;;;5525731;25;20033;-70
2024/04/10 09:21:42;;;;;;;11.23;3.45;;;12.80;99.90;;;;;;5523442;26;20025;-70
2024/04/10 09:24:10;;;;;;;7.05;2.85;;;12.90;99.90;;;;;;5522603;26;20017;-71
2024/04/10 09:26:38;;;;;;;9.18;3.35;;;12.80;99.90;;;;;;5525689;25;20021;-70
2024/04/10 09:29:09;;;;;;;7.85;2.40;;;12.80;99.90;;;;;;5525698;25;20362;-70
2024/04/10 09:31:36;;;;;;;9.82;3.00;;;12.70;99.90;;;;;;5525777;25;20022;-70
2024/04/10 09:34:03;;;;;;;9.38;2.75;;;12.50;99.90;;;;;;5525257;25;20017;-70
2024/04/10 09:36:35;;;;;;;13.82;3.10;;;12.50;99.90;;;;;;5514231;25;20037;-70
2024/04/10 09:39:08;;;;;;;8.90;2.97;;;12.40;99.90;;;;;;5506296;25;20054;-70
2024/04/10 09:41:36;;;;;;;12.90;4.35;;;12.40;99.90;;;;;;5508076;26;20026;-70
2024/04/10 09:44:04;;;;;;;11.45;3.20;;;12.50;99.90;;;;;;5491130;26;20474;-70
2024/04/10 09:46:36;;;;;;;7.65;3.05;;;12.90;99.90;;;;;;5488375;26;20375;-70
2024/04/10 09:49:12;;;;;;;10.32;3.33;;;13.00;99.90;;;;;;5488713;26;20387;-70
2024/04/10 09:51:41;;;;;;;10.02;3.45;;;13.20;99.90;;;;;;5488324;26;20367;-70
2024/04/10 09:54:09;;;;;;;11.70;3.17;;;13.20;99.90;;;;;;5487776;26;20386;-70
2024/04/10 09:56:37;;;;;;;8.50;2.95;;;13.30;99.90;;;;;;5486554;26;20034;-70
2024/04/10 09:59:07;;;;;;;7.72;3.03;;;13.20;99.90;;;;;;5488145;26;20018;-70
2024/04/10 10:01:34;;;;;;;11.57;3.03;;;13.10;99.90;;;;;;5487860;26;20116;-70
2024/04/10 10:04:01;;;;;;;12.13;3.88;;;13.00;99.90;;;;;;5485911;26;20375;-70
2024/04/10 10:06:29;;;;;;;13.52;3.50;;;12.90;99.90;;;;;;5488360;26;20029;-70
2024/04/10 10:08:56;;;;;;;10.98;3.65;;;12.70;99.90;;;;;;5497777;26;20025;-70
2024/04/10 10:11:24;;;;;;;9.90;2.83;;;12.50;99.90;;;;;;5492639;26;20393;-70
2024/04/10 10:14:06;;;;;;;10.35;3.95;;;12.40;99.90;;;;;;5486047;26;20022;-70
2024/04/10 10:16:33;;;;;;;11.00;3.60;;;12.60;99.90;;;;;;5487991;26;20018;-70
2024/04/10 10:19:01;;;;;;;10.95;3.92;;;12.90;99.90;;;;;;5488249;26;20030;-70
2024/04/10 10:21:30;;;;;;;10.48;3.55;;;13.20;99.90;;;;;;5487796;26;20022;-70
2024/04/10 10:24:01;;;;;;;9.63;3.00;;;13.40;99.90;;;;;;5485517;26;20029;-70
2024/04/10 10:26:28;;;;;;;12.15;3.10;;;13.40;99.90;;;;;;5487545;26;20018;-70
2024/04/10 10:29:05;;;;;;;7.57;2.72;;;13.50;99.90;;;;;;5486355;26;20029;-70
2024/04/10 10:31:34;;;;;;;10.30;3.28;;;13.80;99.90;;;;;;5485424;26;20026;-69
2024/04/10 10:34:03;;;;;;;11.18;2.78;;;13.80;99.90;;;;;;5496788;26;20025;-70
2024/04/10 10:36:35;;;;;;;9.68;3.20;;;14.00;99.90;;;;;;5503129;26;20021;-70
2024/04/10 10:39:13;;;;;;;10.10;3.67;;;13.80;99.90;;;;;;5503539;26;20021;-70
2024/04/10 10:41:41;;;;;;;9.20;3.38;;;13.80;99.90;;;;;;5507058;26;20025;-71
2024/04/10 10:44:08;;;;;;;10.63;3.55;;;13.70;99.90;;;;;;5505512;26;20388;-70
2024/04/10 10:46:35;;;;;;;11.00;2.92;;;13.60;99.90;;;;;;5504065;26;20287;-70
2024/04/10 10:49:04;;;;;;;10.52;3.13;;;13.60;99.90;;;;;;5515231;25;20513;-70
2024/04/10 10:51:32;;;;;;;9.50;2.60;;;13.80;99.90;;;;;;5510652;26;20029;-70
2024/04/10 10:53:59;;;;;;;10.65;3.33;;;13.80;99.90;;;;;;5514381;26;20025;-70
2024/04/10 10:56:27;;;;;;;9.13;3.10;;;13.80;99.90;;;;;;5520277;25;20025;-70
2024/04/10 10:58:54;;;;;;;10.35;2.85;;;13.70;99.90;;;;;;5523496;25;20371;-70
2024/04/10 11:01:21;;;;;;;7.95;2.58;;;13.80;99.90;;;;;;5521412;26;20017;-70
2024/04/10 11:03:48;;;;;;;10.10;3.00;;;14.10;99.90;;;;;;5523541;25;20021;-70
2024/04/10 11:06:16;;;;;;;9.27;2.55;;;14.20;99.90;;;;;;5523015;26;20021;-70
2024/04/10 11:08:43;;;;;;;12.13;3.13;;;14.20;99.90;;;;;;5523211;25;20021;-70
2024/04/10 11:11:15;;;;;;;7.15;2.22;;;14.30;99.90;;;;;;5522730;25;20489;-70
2024/04/10 11:13:49;;;;;;;8.88;2.78;;;14.20;99.90;;;;;;5523484;25;20033;-70
2024/04/10 11:16:31;;;;;;;12.68;3.15;;;14.20;99.90;;;;;;5512727;25;20037;-70
2024/04/10 11:19:03;;;;;;;7.55;2.60;;;14.10;99.90;;;;;;5500705;26;20034;-70
2024/04/10 11:21:30;;;;;;;8.02;2.30;;;13.90;99.90;;;;;;5485748;26;20022;-70
2024/04/10 11:23:57;;;;;;;8.90;2.97;;;13.70;99.90;;;;;;5485498;26;20373;-70
2024/04/10 11:26:24;;;;;;;9.88;2.53;;;13.60;99.90;;;;;;5487190;26;20031;-70
2024/04/10 11:28:55;;;;;;;11.65;2.47;;;13.50;99.90;;;;;;5487772;26;20035;-70
2024/04/10 11:31:22;;;;;;;4.88;2.10;;;13.50;99.90;;;;;;5486739;26;20575;-70
2024/04/10 11:33:50;;;;;;;11.20;2.83;;;13.40;99.90;;;;;;5487022;26;20030;-70
2024/04/10 11:36:16;;;;;;;7.50;2.67;;;13.30;99.90;;;;;;5485687;26;20022;-70
2024/04/10 11:38:43;;;;;;;12.25;3.25;;;13.60;99.90;;;;;;5487488;26;20541;-70
2024/04/10 11:41:12;;;;;;;8.35;2.83;;;13.80;99.90;;;;;;5486798;26;20021;-70
2024/04/10 11:43:39;;;;;;;10.68;3.60;;;13.90;99.90;;;;;;5486399;26;20362;-70
2024/04/10 11:46:09;;;;;;;10.52;2.83;;;14.10;99.90;;;;;;5486990;26;20022;-70
2024/04/10 11:48:39;;;;;;;11.70;3.03;;;14.00;99.90;;;;;;5486925;26;20018;-70
2024/04/10 11:51:06;;;;;;;8.43;3.75;;;13.90;99.90;;;;;;5500362;26;20025;-70
2024/04/10 11:53:33;;;;;;;11.80;2.83;;;13.80;99.90;;;;;;5521605;26;20014;-70
2024/04/10 11:56:00;;;;;;;9.38;3.17;;;13.80;99.90;;;;;;5522391;26;20465;-70
2024/04/10 11:58:26;;;;;;;6.68;2.40;;;13.90;99.90;;;;;;5520827;26;20489;-70
2024/04/10 12:00:53;;;;;;;12.45;3.35;;;13.90;99.90;;;;;;5517935;20;20044;-75
2024/04/10 12:03:21;;;;;;;10.52;3.13;;;14.20;99.90;;;;;;5450130;26;20019;-75
2024/04/10 12:05:50;;;;;;;9.25;3.28;;;14.20;99.90;;;;;;5450633;26;20022;-75
2024/04/10 12:08:18;;;;;;;14.15;3.75;;;14.30;99.90;;;;;;5448308;26;20031;-74
2024/04/10 12:10:45;;;;;;;10.57;3.50;;;14.30;99.90;;;;;;5450040;26;20022;-74
2024/04/10 12:13:12;;;;;;;6.97;2.38;;;14.30;99.90;;;;;;5449299;26;20040;-74
2024/04/10 12:15:39;;;;;;;7.13;2.17;;;14.40;99.90;;;;;;5450096;26;20382;-74
2024/04/10 12:18:06;;;;;;;7.85;2.28;;;14.40;99.90;;;;;;5450146;26;20019;-77
2024/04/10 12:20:33;;;;;;;13.20;3.40;;;14.40;99.90;;;;;;5452377;26;20023;-75
2024/04/10 12:23:00;;;;;;;8.52;2.33;;;14.40;99.90;;;;;;5453431;26;20026;-76
2024/04/10 12:25:27;;;;;;;7.50;1.70;;;14.50;99.90;;;;;;5452005;26;20018;-75
2024/04/10 12:27:54;;;;;;;6.70;2.83;;;14.50;99.90;;;;;;5453375;26;20018;-75
2024/04/10 12:30:21;;;;;;;6.30;2.92;;;14.30;99.90;;;;;;5451283;26;20014;-75
2024/04/10 12:32:48;;;;;;;7.68;2.10;;;14.40;99.90;;;;;;5453568;26;20018;-75
2024/04/10 12:38:06;;;;;;;8.02;1.95;;;14.40;99.90;;;;;;5453680;26;20019;-75
2024/04/10 12:40:34;;;;;;;4.75;2.00;;;14.50;99.90;;;;;;5453313;26;20475;-75
2024/04/10 12:43:03;;;;;;;11.23;2.15;;;14.50;99.90;;;;;;5452319;26;20018;-75
2024/04/10 12:45:30;;;;;;;6.63;2.38;;;14.30;99.90;;;;;;5453199;26;20015;-75
2024/04/10 12:47:56;;;;;;;6.25;2.70;;;14.40;99.90;;;;;;5453736;26;20023;-75
2024/04/10 12:50:23;;;;;;;7.45;2.03;;;14.40;99.90;;;;;;5453080;26;20383;-75
2024/04/10 12:52:50;;;;;;;9.88;3.10;;;14.50;99.90;;;;;;5453514;26;20027;-75
2024/04/10 12:55:17;;;;;;;7.75;2.63;;;14.40;99.90;;;;;;5452988;26;20019;-75
2024/04/10 12:57:45;;;;;;;8.13;2.40;;;14.40;99.90;;;;;;5453231;26;20032;-74